Terminal Aerodrome Forecast
Issued by NWS Charleston, WV

Current Version | Previous Version | Graphics & Text | Print | Product List | Glossary On
Versions: 1 2 3 4 5 6 7 8 9 10 11 12 13 14 15 16 17 18 19 20 21 22 23 24 25 26 27 28
445
FTUS41 KRLX 031406 AAA
TAFBKW
TAF AMD
KBKW 031406Z 0314/0412 28005KT P6SM SCT007 OVC015
      TEMPO 0314/0317 BKN007
     FM032000 31008KT P6SM BKN020=

USA.gov is the U.S. government's official web portal to all federal, state and local government web resources and services.